M I D A S
Marine Information and Data Acquisition System
Tripno 337 of the Zeeleeuw from 2002-09-18 06:45:45 to 2002-09-18 13:57:39
Back to CruiseResearch ActivitiesStationsMapUnderway DataData graphs

EquipmentUnitsComment
TimeDGPSUTC
LatitudeDGPSDM.mWGS84
LongitudeDGPSDM.mWGS84
HeadingGyrodeg 
SOGDGPSknotsSpeed over ground
COGDGPSdegCourse over ground
DepthEcho soundermeters200 kHz
Missing or incorrect values are displayed as -999
Navigation data collected by the RV Zeeleeuw from 2002-09-18 06:45:45 to 2002-09-18 13:57:39
Time Latitude Longitude Heading SOG COG Depth
2002-09-18 06:46:50 51°13.794 2°55.641 340.7 2.3 335.4 10.7
2002-09-18 06:47:50 51°13.838 2°55.611 342.2 3.4 337.6 9.7
2002-09-18 06:48:49 51°13.909 2°55.565 343.3 5.7 339.2 10.4
2002-09-18 06:49:50 51°14.014 2°55.505 343 7 339.2 10.4
2002-09-18 06:50:50 51°14.123 2°55.431 340 7.3 336.5 10.6
2002-09-18 06:51:50 51°14.223 2°55.319 321.5 7.4 318.6 10.5
2002-09-18 06:52:50 51°14.306 2°55.171 313.2 7.9 309.7 10.5
2002-09-18 06:53:50 51°14.394 2°54.973 306 10 302.5 10
2002-09-18 06:54:50 51°14.476 2°54.713 312.7 11.3 304.5 10
2002-09-18 06:55:50 51°14.619 2°54.515 344.5 11.8 333.5 10.1
2002-09-18 06:56:49 51°14.811 2°54.458 358.7 12 351.4 9.5
2002-09-18 06:57:50 51°15.009 2°54.391 353.5 11.9 345.6 8.5
2002-09-18 06:58:50 51°15.201 2°54.4 17.2 11.6 8.2 8.8
2002-09-18 06:59:49 51°15.377 2°54.498 36.8 11.3 30.4 8.9
2002-09-18 07:00:49 51°15.53 2°54.674 41 11.4 34.3 9.5
2002-09-18 07:01:50 51°15.653 2°54.912 54.8 12 51.6 9.2
2002-09-18 07:02:53 51°15.788 2°55.187 56.5 12.8 51.9 9.3
2002-09-18 07:03:53 51°15.916 2°55.461 56.5 13 52.8 9.3
2002-09-18 07:04:54 51°16.042 2°55.749 59.7 13 57.5 9.4
2002-09-18 07:05:54 51°16.161 2°56.039 60 13 56.2 9.5
2002-09-18 07:06:53 51°16.28 2°56.325 59.5 13.2 55.7 9.7
2002-09-18 07:07:53 51°16.4 2°56.618 61.5 13.2 57.8 9.6
2002-09-18 07:08:54 51°16.519 2°56.916 61.2 13.1 56.4 9.4
2002-09-18 07:09:53 51°16.626 2°57.21 64 13 59.9 9.5
2002-09-18 07:10:54 51°16.739 2°57.515 62.7 13.1 59.3 9.6
2002-09-18 07:11:53 51°16.846 2°57.813 64.5 13.2 60.7 9.4
2002-09-18 07:12:53 51°16.954 2°58.116 62.5 13.2 59.1 9
2002-09-18 07:13:54 51°17.065 2°58.422 63.2 13 59.9 9.3
2002-09-18 07:14:53 51°17.177 2°58.71 62.2 12.9 58.4 9.1
2002-09-18 07:15:54 51°17.289 2°59.01 61.3 13 58.7 8.9
2002-09-18 07:16:53 51°17.398 2°59.302 63.8 13 60.3 8.7
2002-09-18 07:17:53 51°17.507 2°59.603 61.2 13.1 57.8 8.9
2002-09-18 07:18:53 51°17.622 2°59.894 61.5 12.9 57.7 8.8
2002-09-18 07:19:53 51°17.737 3°0.183 60.3 12.8 57.3 8.5
2002-09-18 07:20:54 51°17.852 3°0.478 62.2 12.9 59.3 8.5
2002-09-18 07:21:54 51°17.967 3°0.766 60.7 12.8 57.3 8.3
2002-09-18 07:22:53 51°18.076 3°1.049 59.8 12.7 56.7 8.2
2002-09-18 07:23:53 51°18.189 3°1.337 63 12.8 60.1 8.2
2002-09-18 07:24:53 51°18.303 3°1.622 60.8 12.7 56.8 8
2002-09-18 07:25:54 51°18.416 3°1.914 60.5 12.8 57.5 8.1
2002-09-18 07:26:53 51°18.529 3°2.194 62.3 12.7 58.4 7.5
2002-09-18 07:27:53 51°18.642 3°2.477 59.8 12.7 56.1 7.7
2002-09-18 07:28:53 51°18.761 3°2.756 62.5 12.7 58.7 7.9
2002-09-18 07:29:53 51°18.872 3°3.043 58.8 12.7 54.7 7.9
2002-09-18 07:30:54 51°18.984 3°3.338 60.2 12.8 57.6 8
2002-09-18 07:31:54 51°19.099 3°3.623 63 12.8 59.2 8
2002-09-18 07:32:53 51°19.214 3°3.901 60.7 12.8 56.8 8
2002-09-18 07:33:53 51°19.328 3°4.189 61.3 12.8 57.9 8
2002-09-18 07:34:53 51°19.443 3°4.474 59 12.8 54.8 8
2002-09-18 07:35:53 51°19.558 3°4.761 63.2 12.9 59.8 8.1
2002-09-18 07:36:53 51°19.688 3°5.032 54.7 12.9 50.2 8.1
2002-09-18 07:37:53 51°19.824 3°5.296 50.5 12.9 46.4 8
2002-09-18 07:38:53 51°19.966 3°5.552 55.2 12.9 50.7 8
2002-09-18 07:39:53 51°20.11 3°5.805 51.3 12.8 47.2 7.8
2002-09-18 07:40:53 51°20.257 3°6.051 45.2 12.8 40.9 7.7
2002-09-18 07:41:53 51°20.423 3°6.265 45.7 12.8 41.2 7.7
2002-09-18 07:42:53 51°20.59 3°6.474 42.8 12.7 38.2 7.7
2002-09-18 07:43:53 51°20.751 3°6.695 47 12.8 42.7 7.6
2002-09-18 07:44:53 51°20.919 3°6.903 43 12.8 38.4 7.8
2002-09-18 07:45:53 51°21.081 3°7.128 43.3 13 39.2 8.1
2002-09-18 07:46:53 51°21.253 3°7.344 43.8 13.2 39 8.8
2002-09-18 07:47:53 51°21.426 3°7.569 47.3 13.4 41.8 9.7
2002-09-18 07:48:53 51°21.591 3°7.81 47.3 13.4 42.3 10.3
2002-09-18 07:49:53 51°21.758 3°8.051 47.3 13.6 41.6 11
2002-09-18 07:50:53 51°21.919 3°8.302 51.5 13.6 46.4 11.5
2002-09-18 07:51:54 51°22.078 3°8.564 50.7 13.5 46 12
2002-09-18 07:52:53 51°22.233 3°8.818 49.5 13.6 44.6 12.5
2002-09-18 07:53:53 51°22.391 3°9.077 51 13.2 46.9 12.9
2002-09-18 07:54:54 51°22.494 3°9.257 50.5 6.8 47.6 13.4
2002-09-18 07:55:53 51°22.551 3°9.35 44.7 4.1 42.4 13.5
2002-09-18 07:56:58 51°22.608 3°9.417 36.8 3.8 33.2 13.5
2002-09-18 07:57:58 51°22.655 3°9.465 36.8 2.8 33.3 13.4
2002-09-18 07:58:58 51°22.687 3°9.497 36.5 1.9 31.6 13.5
2002-09-18 07:59:59 51°22.71 3°9.518 33.8 1.3 29.6 13.6
2002-09-18 08:00:58 51°22.724 3°9.528 33.7 0.7 22.3 13.7
2002-09-18 08:01:58 51°22.735 3°9.533 20.3 0.7 10.1 13.7
2002-09-18 08:02:58 51°22.747 3°9.531 358.8 0.7 341.5 13.7
2002-09-18 08:03:58 51°22.755 3°9.517 332.3 0.8 303.3 13.6
2002-09-18 08:04:58 51°22.761 3°9.495 307 1 280.4 13.7
2002-09-18 08:05:58 51°22.76 3°9.467 284 1.2 260.3 13.6
2002-09-18 08:06:57 51°22.754 3°9.438 266.3 1.1 242.9 13.5
2002-09-18 08:07:58 51°22.744 3°9.411 260 1.2 240.5 13.6
2002-09-18 08:09:00 51°22.734 3°9.393 253.7 0.6 210.4 13.7
2002-09-18 08:10:00 51°22.725 3°9.382 245.3 0.8 217 13.7
2002-09-18 08:11:00 51°22.712 3°9.365 221.3 1.2 212.7 13.7
2002-09-18 08:12:05 51°22.69 3°9.351 192 1.3 197.9 13.6
2002-09-18 08:13:04 51°22.67 3°9.346 169 1.2 182.9 13.5
2002-09-18 08:14:05 51°22.65 3°9.35 150 1.2 168.7 13.5
2002-09-18 08:15:05 51°22.634 3°9.36 131.7 1.1 153.7 13.7
2002-09-18 08:16:05 51°22.621 3°9.377 112.8 0.9 134.4 13.5
2002-09-18 08:17:04 51°22.613 3°9.396 92.5 0.9 114.3 13.5
2002-09-18 08:18:04 51°22.61 3°9.417 69.8 0.8 96.3 13.8
2002-09-18 08:19:05 51°22.613 3°9.435 47.7 0.7 64.3 13.7
2002-09-18 08:20:04 51°22.621 3°9.446 19.7 0.6 22 13.7
2002-09-18 08:21:10 51°22.635 3°9.449 9.5 0.8 2.4 13.7
2002-09-18 08:22:10 51°22.65 3°9.452 14.3 1 6.4 13.6
2002-09-18 08:23:10 51°22.666 3°9.46 31.3 1 29.2 13.7
2002-09-18 08:24:10 51°22.678 3°9.477 52.7 1 52.5 13.7
2002-09-18 08:25:10 51°22.682 3°9.496 64.5 0.7 73.8 13.8
2002-09-18 08:26:10 51°22.683 3°9.512 62 0.6 87.3 14.1
2002-09-18 08:27:10 51°22.683 3°9.531 72 0.8 90.9 14.1
2002-09-18 08:28:10 51°22.683 3°9.558 87 1 99.8 13.9
2002-09-18 08:29:10 51°22.677 3°9.586 104.8 1.2 115.5 14
2002-09-18 08:30:10 51°22.665 3°9.617 125.7 1.5 128.7 13.8
2002-09-18 08:31:10 51°22.646 3°9.643 146.7 1.6 144.6 14
2002-09-18 08:32:10 51°22.622 3°9.661 168 1.6 161.7 14
2002-09-18 08:33:10 51°22.596 3°9.665 190.5 1.6 181.3 13.9
2002-09-18 08:34:10 51°22.569 3°9.656 211.5 1.7 200.4 14
2002-09-18 08:35:09 51°22.547 3°9.635 231.8 1.6 217.8 14.1
2002-09-18 08:36:09 51°22.529 3°9.595 259.8 2.4 248.9 14
2002-09-18 08:37:10 51°22.567 3°9.473 316.7 7.9 312.1 14
2002-09-18 08:38:10 51°22.698 3°9.232 315.5 13.3 311.3 13.6
2002-09-18 08:39:10 51°22.858 3°8.976 320.8 13.6 316.7 13.8
2002-09-18 08:40:10 51°23.023 3°8.73 320.2 13.5 316.6 13.3
2002-09-18 08:41:10 51°23.186 3°8.483 319.8 13.5 316.3 12.7
2002-09-18 08:42:15 51°23.364 3°8.216 320.5 13.5 317.1 13.2
2002-09-18 08:43:14 51°23.528 3°7.975 319 13.7 316.5 16.5
2002-09-18 08:44:14 51°23.692 3°7.721 317.8 13.6 315.7 19.1
2002-09-18 08:45:14 51°23.865 3°7.488 324.7 13.7 323 19.5
2002-09-18 08:46:15 51°24.042 3°7.268 322 11.8 320 19.4
2002-09-18 08:47:14 51°24.144 3°7.133 321.2 6.4 319.6 18.8
2002-09-18 08:48:14 51°24.204 3°7.057 316.8 2.6 320 16.4
2002-09-18 08:49:21 51°24.219 3°7.016 301.7 1.2 291.5 16.1
2002-09-18 08:50:21 51°24.225 3°6.996 314.8 0.7 302.7 15.9
2002-09-18 08:51:21 51°24.231 3°6.987 328 0.4 330.8 15.8
2002-09-18 08:52:21 51°24.238 3°6.985 347 0.5 14 15.7
2002-09-18 08:53:21 51°24.246 3°6.993 3.8 0.6 43 15.6
2002-09-18 08:54:21 51°24.252 3°7.007 17.7 0.7 57.1 15.5
2002-09-18 08:55:21 51°24.259 3°7.022 9 0.7 53.5 15.2
2002-09-18 08:56:21 51°24.266 3°7.034 353.8 0.6 40.1 15.1
2002-09-18 08:57:21 51°24.275 3°7.04 337.5 0.5 11.4 15
2002-09-18 08:58:21 51°24.281 3°7.039 320 0.3 342.2 14.9
2002-09-18 08:59:26 51°24.284 3°7.032 298.8 0.3 275.1 14.9
2002-09-18 09:00:26 51°24.281 3°7.021 287.5 0.6 249.2 15.1
2002-09-18 09:01:26 51°24.279 3°7.004 292.2 0.6 262.5 15.1
2002-09-18 09:02:26 51°24.28 3°6.988 306.7 0.6 295.7 15
2002-09-18 09:03:26 51°24.287 3°6.978 322.7 0.6 328.4 14.9
2002-09-18 09:04:34 51°24.296 3°6.973 330.7 0.4 352.4 14.8
2002-09-18 09:05:34 51°24.301 3°6.975 337.2 0.4 30.1 14.8
2002-09-18 09:06:34 51°24.306 3°6.982 343.5 0.4 52.6 14.5
2002-09-18 09:07:34 51°24.311 3°6.992 349.2 0.5 60.8 14.5
2002-09-18 09:08:33 51°24.313 3°7.004 352 0.6 82.2 14.6
2002-09-18 09:09:34 51°24.313 3°7.019 354.7 0.5 94.2 14.5
2002-09-18 09:10:34 51°24.312 3°7.033 356.2 0.5 87.9 14.5
2002-09-18 09:11:34 51°24.312 3°7.048 359.5 0.6 89.6 14.5
2002-09-18 09:12:34 51°24.311 3°7.063 1 0.6 98.7 14.6
2002-09-18 09:13:34 51°24.309 3°7.08 2.8 0.6 103.7 14.6
2002-09-18 09:14:33 51°24.306 3°7.096 4.5 0.7 110.9 14.7
2002-09-18 09:15:38 51°24.301 3°7.114 6 0.7 114.2 15
2002-09-18 09:16:38 51°24.297 3°7.131 4.5 0.7 112.3 14.8
2002-09-18 09:17:37 51°24.293 3°7.146 3.2 0.7 113.9 14.9
2002-09-18 09:18:38 51°24.289 3°7.162 5.8 0.6 112.2 15.1
2002-09-18 09:19:38 51°24.284 3°7.18 11.7 0.7 116.1 15.1
2002-09-18 09:20:38 51°24.279 3°7.197 15 0.7 116.4 15.1
2002-09-18 09:21:38 51°24.275 3°7.214 16.7 0.7 114.5 15.3
2002-09-18 09:22:37 51°24.271 3°7.233 18.5 0.7 104.7 15.4
2002-09-18 09:23:37 51°24.273 3°7.255 25 1 69.5 15.3
2002-09-18 09:24:38 51°24.281 3°7.288 40 1.5 67.4 15.2
2002-09-18 09:25:38 51°24.29 3°7.331 59 1.8 75.9 15
2002-09-18 09:26:38 51°24.295 3°7.381 74.7 2 83.6 15
2002-09-18 09:27:37 51°24.299 3°7.437 68.2 2.2 79.4 14.9
2002-09-18 09:28:38 51°24.328 3°7.503 19.7 3.4 36.8 14.5
2002-09-18 09:29:38 51°24.393 3°7.545 3.3 4.8 14 13.6
2002-09-18 09:30:37 51°24.479 3°7.556 356.2 5.6 1.7 13.1
2002-09-18 09:31:37 51°24.575 3°7.565 358.3 5.9 3.9 12.6
2002-09-18 09:32:38 51°24.676 3°7.576 359 6 3.9 12.4
2002-09-18 09:33:38 51°24.777 3°7.593 1.5 6.1 6.8 12.2
2002-09-18 09:34:38 51°24.877 3°7.608 358.3 6 3.7 11.7
2002-09-18 09:35:38 51°24.976 3°7.618 359 6 3.9 11.2
2002-09-18 09:36:38 51°25.075 3°7.632 1.8 6 6.2 10.2
2002-09-18 09:37:38 51°25.174 3°7.649 0.5 6 5.6 10.3
2002-09-18 09:38:38 51°25.273 3°7.663 359.5 5.9 4.8 10.4
2002-09-18 09:39:37 51°25.371 3°7.674 359.2 6.1 4.5 10.6
2002-09-18 09:40:38 51°25.473 3°7.686 0.3 5.9 5.3 10.8
2002-09-18 09:41:38 51°25.571 3°7.701 0.5 6.1 5.1 11.1
2002-09-18 09:42:38 51°25.671 3°7.715 359.8 6 4.2 11.2
2002-09-18 09:43:38 51°25.772 3°7.728   6.1 4.2 11.3
2002-09-18 09:44:38 51°25.873 3°7.74 359.8 6.1 3.8 11.5
2002-09-18 09:45:38 51°25.976 3°7.752 0.2 6.2 4.3 11.5
2002-09-18 09:46:38 51°26.079 3°7.763 359.5 6.3 3.7 11.5
2002-09-18 09:47:37 51°26.179 3°7.775 359.5 6.2 3.8 11.6
2002-09-18 09:48:38 51°26.283 3°7.788 5.3 6.2 8.6 11.7
2002-09-18 09:49:37 51°26.382 3°7.829 11.5 6.3 16.5 12.1
2002-09-18 09:50:37 51°26.478 3°7.879 15.5 6.1 19.5 12.4
2002-09-18 09:51:38 51°26.574 3°7.937 15.7 6 21 12.1
2002-09-18 09:52:38 51°26.67 3°7.991 13 6.1 17.1 12.8
2002-09-18 09:53:38 51°26.766 3°8.04 13.7 6 18.3 13.1
2002-09-18 09:54:38 51°26.858 3°8.097 20.8 5.9 24.4 13.7
2002-09-18 09:55:38 51°26.948 3°8.179 27 6.4 30.6 13.7
2002-09-18 09:56:37 51°27.041 3°8.262 25.3 6.5 28.5 13.6
2002-09-18 09:57:38 51°27.138 3°8.344 24.2 6.5 27.7 14
2002-09-18 09:58:37 51°27.232 3°8.42 23.7 6.4 27 13.8
2002-09-18 09:59:37 51°27.327 3°8.499 24.3 6.4 27.1 14.2
2002-09-18 10:00:38 51°27.425 3°8.58 24.2 6.5 27.3 14.5
2002-09-18 10:01:37 51°27.519 3°8.658 25 6.5 27.7 14.8
2002-09-18 10:02:38 51°27.616 3°8.736 23 6.2 26.5 14.9
2002-09-18 10:03:38 51°27.696 3°8.802 23 5.2 27.1 15.1
2002-09-18 10:04:38 51°27.768 3°8.865 24.3 4.8 29.2 15.2
2002-09-18 10:05:38 51°27.835 3°8.928 25 4.7 30.7 15.3
2002-09-18 10:06:38 51°27.903 3°8.993 26.2 4.8 30.6 15.2
2002-09-18 10:07:37 51°27.97 3°9.061 28.7 4.8 33.5 15.3
2002-09-18 10:08:38 51°28.037 3°9.134 30.3 4.7 34.5 15.4
2002-09-18 10:09:38 51°28.102 3°9.208 30.7 4.7 36.3 15.4
2002-09-18 10:10:38 51°28.152 3°9.25 357.3 2.6 14.9 15.4
2002-09-18 10:11:38 51°28.185 3°9.24 305.7 1.8 325.9 15.5
2002-09-18 10:12:38 51°28.193 3°9.209 262 1.1 263.5 15.7
2002-09-18 10:13:38 51°28.185 3°9.187 245 1 229.7 15.5
2002-09-18 10:14:38 51°28.172 3°9.17 241.5 1 217.2 15.5
2002-09-18 10:15:38 51°28.161 3°9.152 249 0.9 233.4 15.7
2002-09-18 10:16:38 51°28.154 3°9.132 258.7 0.8 246.6 15.6
2002-09-18 10:17:38 51°28.152 3°9.113 270.7 0.7 271.6 15.7
2002-09-18 10:18:38 51°28.155 3°9.098 278.5 0.5 297.9 15.6
2002-09-18 10:19:38 51°28.161 3°9.089 287.7 0.4 323.8 15.5
2002-09-18 10:20:38 51°28.168 3°9.085 296.5 0.4 352.9 15.8
2002-09-18 10:21:37 51°28.177 3°9.088 305.7 0.6 22.3 15.8
2002-09-18 10:22:38 51°28.185 3°9.096 313.8 0.6 41.9 15.7
2002-09-18 10:23:38 51°28.192 3°9.109 320.7 0.7 51.3 15.7
2002-09-18 10:24:38 51°28.198 3°9.123 323.5 0.6 58.8 15.9
2002-09-18 10:25:38 51°28.202 3°9.139 326.7 0.6 67.8 15.8
2002-09-18 10:26:38 51°28.205 3°9.156 325.2 0.6 63.1 15.8
2002-09-18 10:27:38 51°28.216 3°9.155 295.2 0.8 329.2 15.8
2002-09-18 10:28:38 51°28.223 3°9.142 267.5 0.5 290.9 15.8
2002-09-18 10:29:38 51°28.221 3°9.133 238.2 0.5 209.9 15.9
2002-09-18 10:30:38 51°28.209 3°9.13 217.7 0.8 184 15.8
2002-09-18 10:31:38 51°28.192 3°9.132 207.8 1.1 173 15.8
2002-09-18 10:32:37 51°28.175 3°9.137 202.2 1.2 168.1 15.7
2002-09-18 10:33:37 51°28.156 3°9.145 199.3 1.2 162.5 15.6
2002-09-18 10:34:38 51°28.139 3°9.156 196.7 0.9 152.1 15.5
2002-09-18 10:35:38 51°28.128 3°9.17 194.2 0.9 143.3 15.7
2002-09-18 10:36:38 51°28.109 3°9.179 211.2 1.3 179.5 15.6
2002-09-18 10:37:38 51°28.095 3°9.16 252.2 1 248.4 15.8
2002-09-18 10:38:38 51°28.097 3°9.136 281 1 298.9 15.7
2002-09-18 10:39:38 51°28.113 3°9.119 307 1.2 334 15.5
2002-09-18 10:40:38 51°28.134 3°9.109 320.7 1.5 347.2 15.7
2002-09-18 10:41:38 51°28.161 3°9.102 330.2 1.7 353.2 15.8
2002-09-18 10:42:38 51°28.19 3°9.102 340.5 1.8 2.7 15.8
2002-09-18 10:43:38 51°28.221 3°9.108 350 2 11.2 15.9
2002-09-18 10:44:38 51°28.251 3°9.121   1.8 19.3 16
2002-09-18 10:45:38 51°28.284 3°9.137 350.3 2.7 6.4 15.9
2002-09-18 10:46:38 51°28.315 3°9.081 269.3 4.8 274.3 16.4
2002-09-18 10:47:38 51°28.313 3°8.877 271.3 8.7 271 16.2
2002-09-18 10:48:38 51°28.317 3°8.633 272.2 9.3 272.3 16.4
2002-09-18 10:49:38 51°28.327 3°8.385 274.5 9.3 274.5 15.5
2002-09-18 10:50:37 51°28.339 3°8.141 274.3 9.4 274.9 15.2
2002-09-18 10:51:38 51°28.349 3°7.889 273.8 9.3 273.5 16.2
2002-09-18 10:52:38 51°28.36 3°7.64 273.5 9.4 273.8 16.7
2002-09-18 10:53:37 51°28.371 3°7.394 274.3 9.4 274.2 16.9
2002-09-18 10:54:38 51°28.383 3°7.139 274.2 9.5 274.4 17.4
2002-09-18 10:55:38 51°28.395 3°6.888 274.5 9.5 273.8 17.4
2002-09-18 10:56:37 51°28.405 3°6.643 274.2 9.4 274.5 17.2
2002-09-18 10:57:38 51°28.418 3°6.39 274.2 9.4 274.4 17.7
2002-09-18 10:58:38 51°28.431 3°6.141 273.5 9.4 274.6 18.2
2002-09-18 10:59:38 51°28.444 3°5.892 274.8 9.4 275.5 17.3
2002-09-18 11:00:38 51°28.458 3°5.644 274 9.3 275.2 18
2002-09-18 11:01:37 51°28.471 3°5.401 274 9.3 274.4 18.1
2002-09-18 11:02:37 51°28.485 3°5.156 273.7 9.3 274.9 19.3
2002-09-18 11:03:37 51°28.498 3°4.91 273.5 9.2 275.2 20.8
2002-09-18 11:04:38 51°28.511 3°4.66 272.5 9.2 274 21.7
2002-09-18 11:05:38 51°28.523 3°4.446 274.3 7.1 277 22.7
2002-09-18 11:06:38 51°28.554 3°4.273 292.5 6.6 296.3 23.3
2002-09-18 11:07:38 51°28.623 3°4.144 305.7 5.8 313.9 24.3
2002-09-18 11:08:37 51°28.678 3°4.05 299 4.5 309.7 24.6
2002-09-18 11:09:38 51°28.709 3°3.96 273.2 3.4 286.1 24.8
2002-09-18 11:10:38 51°28.718 3°3.874 266.5 3.2 276.9 25.1
2002-09-18 11:11:38 51°28.721 3°3.802 255.2 2.1 267.9 25.2
2002-09-18 11:12:38 51°28.711 3°3.771 225.7 1.1 219.3 25.1
2002-09-18 11:13:38 51°28.697 3°3.762 217.3 0.7 190 24.9
2002-09-18 11:14:38 51°28.695 3°3.771 209.3 0.4 107.1 25.1
2002-09-18 11:15:38 51°28.694 3°3.785 201.5 0.6 95.9 25
2002-09-18 11:16:38 51°28.693 3°3.803 196 0.7 98.5 25.1
2002-09-18 11:17:38 51°28.689 3°3.822 194 0.8 109.4 25
2002-09-18 11:18:38 51°28.686 3°3.837 213.2 0.5 110.6 24.9
2002-09-18 11:19:38 51°28.685 3°3.841 239.8   27.7 25
2002-09-18 11:20:38 51°28.692 3°3.835 267.7 0.6 335.4 25
2002-09-18 11:21:38 51°28.703 3°3.825 270.5 0.9 331.4 25.1
2002-09-18 11:22:38 51°28.715 3°3.812 265 0.9 317.5 25
2002-09-18 11:23:38 51°28.722 3°3.796 251.8 0.7 297 25
2002-09-18 11:24:38 51°28.723 3°3.782 235.3 0.4 255.5 25.2
2002-09-18 11:25:38 51°28.717 3°3.776 223.5 0.5 200.1 25.1
2002-09-18 11:26:38 51°28.713 3°3.768 240.3 0.4 256.4 25.1
2002-09-18 11:27:38 51°28.71 3°3.756 237.5 0.5 233.4 25.1
2002-09-18 11:28:38 51°28.706 3°3.745 229.3 0.5 221.6 25.1
2002-09-18 11:29:38 51°28.699 3°3.738 228.8 0.5 216.6 25.1
2002-09-18 11:30:38 51°28.697 3°3.726 247.3 0.5 287.2 25
2002-09-18 11:31:38 51°28.705 3°3.712 268.2 0.9 324.1 25
2002-09-18 11:32:38 51°28.716 3°3.702 257 0.6 330.9 25.2
2002-09-18 11:33:39 51°28.721 3°3.699 231.7 0.2 39.4 25
2002-09-18 11:34:38 51°28.721 3°3.708 204 0.6 92.7 25.2
2002-09-18 11:35:38 51°28.719 3°3.726 203 0.6 104.1 25.1
2002-09-18 11:36:38 51°28.718 3°3.736 228.2 0.2 100.1 25
2002-09-18 11:37:38 51°28.721 3°3.735 242 0.3 349.4 25.2
2002-09-18 11:38:38 51°28.724 3°3.733 239.8 0.2 311 25.1
2002-09-18 11:39:38 51°28.726 3°3.728 239.5 0.3 305.3 25.2
2002-09-18 11:40:38 51°28.728 3°3.722 237.2 0.2 282.5 25.1
2002-09-18 11:41:38 51°28.729 3°3.715 242.2 0.4 302.2 25.1
2002-09-18 11:42:38 51°28.737 3°3.704 270.8 0.9 324.6 25.1
2002-09-18 11:43:38 51°28.757 3°3.691 300.7 1.5 346 25.2
2002-09-18 11:44:38 51°28.788 3°3.689 329.5 2.1 3 25.1
2002-09-18 11:45:38 51°28.823 3°3.703 357.7 2.3 20.2 24.8
2002-09-18 11:46:38 51°28.857 3°3.732 25.8 2.4 31.9 25.2
2002-09-18 11:47:38 51°28.888 3°3.776 57.3 2.6 48.2 25.2
2002-09-18 11:48:38 51°28.909 3°3.832 89.7 2.5 64.2 25.2
2002-09-18 11:49:38 51°28.92 3°3.893 124.2 2.2 80.4 25
2002-09-18 11:50:38 51°28.893 3°3.939 197.7 4.1 180.4 25.1
2002-09-18 11:51:38 51°28.809 3°3.829 216.2 8.2 212.7 25
2002-09-18 11:52:39 51°28.635 3°3.712 206.7 12.5 202.9 24.7
2002-09-18 11:53:38 51°28.443 3°3.586 204 12.8 199.6 24.2
2002-09-18 11:54:38 51°28.241 3°3.475 205.7 12.5 200.5 23.7
2002-09-18 11:55:38 51°28.044 3°3.339 208.3 13 204 22.8
2002-09-18 11:56:38 51°27.846 3°3.199 208.2 12.7 204.3 21.6
2002-09-18 11:57:38 51°27.645 3°3.058 208.5 13.5 204.2 19.6
2002-09-18 11:58:38 51°27.451 3°2.911 208.2 12.8 204.2 13.8
2002-09-18 11:59:38 51°27.255 3°2.77 208.2 12.6 204.3 13.6
2002-09-18 12:00:38 51°27.057 3°2.628 207.8 13.3 203.7 14.9
2002-09-18 12:01:38 51°26.861 3°2.489 207.5 12.7 204.1 14.7
2002-09-18 12:02:38 51°26.662 3°2.347 208.8 13.3 204.1 14
2002-09-18 12:03:39 51°26.463 3°2.203 208.7 13.3 205.4 13
2002-09-18 12:04:38 51°26.273 3°2.068 206.8 12.4 203 12.5
2002-09-18 12:05:38 51°26.076 3°1.93 208.3 12.9 204.8 12
2002-09-18 12:06:38 51°25.881 3°1.79 207.3 12.3 204 12.3
2002-09-18 12:07:37 51°25.688 3°1.651 209 12.9 205.5 13.3
2002-09-18 12:08:39 51°25.485 3°1.501 207.8 12.9 204.1 14.3
2002-09-18 12:09:38 51°25.289 3°1.359 207 12.7 203.6 14.9
2002-09-18 12:10:38 51°25.093 3°1.212 208.2 12.9 205.4 15.5
2002-09-18 12:11:39 51°24.889 3°1.07 206.2 12.8 201.8 18.2
2002-09-18 12:12:38 51°24.692 3°0.933 209.3 13.3 204.3 20.1
2002-09-18 12:13:39 51°24.492 3°0.793 210.2 13 205.5 17.6
2002-09-18 12:14:38 51°24.3 3°0.658 208.8 12.7 205 17.8
2002-09-18 12:15:39 51°24.101 3°0.521 208.2 12.8 203.6 18.5
2002-09-18 12:16:39 51°23.902 3°0.382 207.3 12.9 202.9 19.6
2002-09-18 12:17:39 51°23.701 3°0.25 208.8 13 203.7 19.6
2002-09-18 12:18:38 51°23.507 3°0.118 205.8 12.3 201 19.4
2002-09-18 12:19:38 51°23.405 3°0.012 233.3 4.9 227.7 19.7
2002-09-18 12:20:38 51°23.38 2°59.94 251.8 2.2 254.1 19.5
2002-09-18 12:21:38 51°23.376 2°59.888 241.7 2.5 247.4 19.5
2002-09-18 12:22:38 51°23.312 2°59.903 165.2 5.8 153.1 19.5
2002-09-18 12:23:39 51°23.223 2°59.993 155.7 5.3 142.1 18.5
2002-09-18 12:24:38 51°23.215 3°0.021 214.8 0.8 61.3 18.5
2002-09-18 12:25:38 51°23.219 3°0.031 241.8 0.2 23 18.4
2002-09-18 12:26:38 51°23.221 3°0.029 238.8 0.2 273.3 18.5
2002-09-18 12:27:38 51°23.218 3°0.02 230.8 0.5 233.4 18.3
2002-09-18 12:28:38 51°23.215 3°0.004 244.8 0.8 260.7 18.4
2002-09-18 12:29:38 51°23.215 2°59.981 249.5 1 270.1 18.4
2002-09-18 12:30:38 51°23.213 2°59.957 242 0.8 256.3 18.4
2002-09-18 12:31:39 51°23.209 2°59.941 232.5 0.5 243.5 18.5
2002-09-18 12:32:39 51°23.205 2°59.935 222.3 0.3 218.5 18.4
2002-09-18 12:33:38 51°23.201 2°59.935 210.2 0.3 160.2 18.4
2002-09-18 12:34:38 51°23.195 2°59.939 213 0.5 184.9 18.4
2002-09-18 12:35:38 51°23.191 2°59.934 236.7 0.4 241.6 18.4
2002-09-18 12:36:39 51°23.193 2°59.922 257.8 0.5 302.4 18.3
2002-09-18 12:37:39 51°23.202 2°59.912 277.7 0.8 331.7 18.5
2002-09-18 12:38:39 51°23.217 2°59.903 297 1 346.5 18.5
2002-09-18 12:39:39 51°23.234 2°59.898 308.3 1.1 356.7 18.7
2002-09-18 12:40:38 51°23.251 2°59.897 313.8 1 1.8 18.7
2002-09-18 12:41:37 51°23.268 2°59.898 311.2 1.1 0.3 18.9
2002-09-18 12:42:38 51°23.286 2°59.896 299.5 1 349.9 19.1
2002-09-18 12:43:37 51°23.301 2°59.891 284.3 0.9 344.4 19.3
2002-09-18 12:44:38 51°23.314 2°59.887 281 0.8 350.3 19.4
2002-09-18 12:45:39 51°23.327 2°59.884 281 0.7 356.3 19.2
2002-09-18 12:46:39 51°23.337 2°59.873 259.3 1 291.7 19.1
2002-09-18 12:47:38 51°23.335 2°59.859 224.3 0.4 216.5 19.3
2002-09-18 12:48:38 51°23.327 2°59.861 196.3 0.6 160.4 19.4
2002-09-18 12:49:38 51°23.315 2°59.871 186.8 1 151.2 19.3
2002-09-18 12:50:38 51°23.299 2°59.885 186.5 1 155.1 19.1
2002-09-18 12:51:37 51°23.286 2°59.889 214.5 0.7 189.6 18.9
2002-09-18 12:52:38 51°23.28 2°59.878 243.3 0.6 255.2 19.1
2002-09-18 12:53:39 51°23.285 2°59.859 270 0.9 305.2 19.1
2002-09-18 12:54:38 51°23.299 2°59.842 295.5 1.2 331.3 19.2
2002-09-18 12:55:38 51°23.321 2°59.83 319.7 1.5 348.1 19.2
2002-09-18 12:56:38 51°23.347 2°59.827 341.5 1.6 1.4 19.2
2002-09-18 12:57:38 51°23.374 2°59.836 4.7 1.6 18.3 19.2
2002-09-18 12:58:38 51°23.398 2°59.854 27.5 1.7 29.9 19.2
2002-09-18 12:59:38 51°23.437 2°59.888 12.5 3.9 17.6 19.2
2002-09-18 13:00:38 51°23.51 2°59.793 281.8 9.7 285.2 18.9
2002-09-18 13:01:38 51°23.457 2°59.487 258.7 13.1 258.1 19.4
2002-09-18 13:02:38 51°23.367 2°59.172 242.2 13.2 240.8 19.4
2002-09-18 13:03:38 51°23.264 2°58.864 243.7 13.2 242.2 19.3
2002-09-18 13:04:38 51°23.132 2°58.592 221.5 13 220.2 19.4
2002-09-18 13:05:38 51°22.945 2°58.405 213.8 13.3 210.3 19
2002-09-18 13:06:38 51°22.76 2°58.212 216.8 13.1 213.9 18.8
2002-09-18 13:07:38 51°22.587 2°57.996 221.8 13.1 219.6 18.8
2002-09-18 13:08:38 51°22.418 2°57.772 222.3 13.1 219.9 18.6
2002-09-18 13:09:37 51°22.251 2°57.556 220.8 12.9 217.7 18.2
2002-09-18 13:10:39 51°22.074 2°57.332 220.5 13.1 217.8 17.8
2002-09-18 13:11:39 51°21.902 2°57.111 223.2 13.2 220 17.4
2002-09-18 13:12:39 51°21.734 2°56.887 223.5 13.3 220.4 17.1
2002-09-18 13:13:39 51°21.563 2°56.661 221.7 13.4 218.5 16.6
2002-09-18 13:14:39 51°21.391 2°56.445 221.7 13.3 218.7 16.4
2002-09-18 13:15:39 51°21.218 2°56.22 222.2 13.4 219.4 15.9
2002-09-18 13:16:39 51°21.049 2°55.992 223.7 13.3 220.7 15.6
2002-09-18 13:17:39 51°20.907 2°55.722 236.7 13.3 234.1 15.6
2002-09-18 13:18:39 51°20.778 2°55.433 235.2 13.3 233.2 15.6
2002-09-18 13:19:39 51°20.646 2°55.145 235.2 13.3 233.2 15.7
2002-09-18 13:20:39 51°20.485 2°54.906 213.8 13.3 210.9 15.6
2002-09-18 13:21:39 51°20.296 2°54.718 214.7 13.5 212.3 15
2002-09-18 13:22:38 51°20.109 2°54.53 215.8 13.5 213.4 14.7
2002-09-18 13:23:38 51°19.924 2°54.329 217.7 13.4 215.4 13.5
2002-09-18 13:24:39 51°19.737 2°54.12 218.5 13.6 216.3 13.7
2002-09-18 13:25:39 51°19.551 2°53.922 217.5 13.6 214.7 13.5
2002-09-18 13:26:39 51°19.367 2°53.727 217 13 214.2 13.2
2002-09-18 13:27:39 51°19.185 2°53.518 217.8 13.5 216 12.9
2002-09-18 13:28:39 51°18.999 2°53.318 213.7 13.2 212 12.6
2002-09-18 13:29:39 51°18.803 2°53.139 212.7 13.3 210 12.4
2002-09-18 13:30:39 51°18.605 2°52.968 210.7 13.5 208.4 12.2
2002-09-18 13:31:39 51°18.403 2°52.811 208 13.7 205.1 11.9
2002-09-18 13:32:39 51°18.194 2°52.685 196.3 13.2 194.3 11.5
2002-09-18 13:33:39 51°17.97 2°52.647 190.3 13.4 187.1 11.4
2002-09-18 13:34:39 51°17.75 2°52.701 163.2 13.2 158.7 11.1
2002-09-18 13:35:39 51°17.542 2°52.845 160.8 14.1 157 10.6
2002-09-18 13:36:39 51°17.333 2°52.974 163 13.8 158.4 9.6
2002-09-18 13:37:39 51°17.126 2°53.12 161.5 13.6 157.2 9.3
2002-09-18 13:38:39 51°16.915 2°53.223 165.3 13.1 161.2 9
2002-09-18 13:39:39 51°16.696 2°53.345 163.7 13.9 160.1 12.2
2002-09-18 13:40:39 51°16.477 2°53.469 165.8 13.7 161.3 12.9
2002-09-18 13:41:39 51°16.259 2°53.594 165 13.8 160.8 12.7
2002-09-18 13:42:39 51°16.039 2°53.717 165.5 13.8 161.7 12.3
2002-09-18 13:43:39 51°15.82 2°53.832 164.2 13.8 161.1 11.6
2002-09-18 13:44:39 51°15.599 2°53.945 165.8 13.5 162.9 11
2002-09-18 13:45:39 51°15.402 2°54.085 148.5 11.5 145.6 10.2
2002-09-18 13:46:39 51°15.281 2°54.214 148 7 144.9 9.9
2002-09-18 13:47:39 51°15.205 2°54.306 151.3 5.1 144.8 9.6
2002-09-18 13:48:39 51°15.143 2°54.372 150.3 4 147.3 9.5
2002-09-18 13:49:39 51°15.094 2°54.428 148 3.4 143 9.3
2002-09-18 13:50:39 51°15.052 2°54.479 150.7 3.1 145.4 9.2
2002-09-18 13:51:39 51°15.009 2°54.52 154.3 2.9 148.7 9.2
2002-09-18 13:52:39 51°14.969 2°54.56 154.2 2.9 148.5 9.5
2002-09-18 13:53:39 51°14.878 2°54.632 158.8 8.4 155.8 9.8
2002-09-18 13:54:39 51°14.726 2°54.733 158.3 10.6 155.9 10
2002-09-18 13:55:39 51°14.566 2°54.846 156.8 10.4 155.8 10.1
2002-09-18 13:56:39 51°14.423 2°54.987 141.8 9.6 142.2 10.5